Time;durP1;ratioP1;P1;durP2;ratioP2;P2;SDS_P1;SDS_P2;PMS_P1;PMS_P2;Temp;Humidity;BMP_temperature;BMP_pressure;BME280_temperature;BME280_humidity;BME280_pressure;Samples;Min_cycle;Max_cycle;Signal;HPM_P1;HPM_P2
2021/01/01 00:00:22;;;;;;;180.33;130.79;;;2.90;99.90;;;7.87;82.94;100518.33;1666644;76;24451;-81
2021/01/01 00:02:40;;;;;;;171.69;121.99;;;2.90;99.90;;;7.87;83.18;100516.62;1703035;74;24439;-81
2021/01/01 00:04:56;;;;;;;175.50;121.70;;;2.80;99.90;;;7.88;83.24;100517.47;1706085;74;24530;-81
2021/01/01 00:07:13;;;;;;;167.83;117.59;;;2.80;99.90;;;7.95;82.94;100520.17;1695875;74;24477;-81
2021/01/01 00:09:29;;;;;;;148.76;103.85;;;2.80;99.90;;;7.91;82.91;100522.70;1714313;74;24474;-81
2021/01/01 00:11:48;;;;;;;150.95;105.82;;;2.80;99.90;;;7.94;83.25;100524.05;1702224;74;24912;-81
2021/01/01 00:14:04;;;;;;;150.24;105.58;;;2.80;99.90;;;8.02;83.12;100519.44;1702236;74;24452;-80
2021/01/01 00:16:21;;;;;;;152.10;105.64;;;2.80;99.90;;;7.97;82.80;100519.78;1664302;76;24456;-81
2021/01/01 00:18:38;;;;;;;154.57;106.83;;;2.80;99.90;;;7.83;82.09;100522.59;1655520;77;24530;-81
2021/01/01 00:20:54;;;;;;;152.16;106.27;;;2.80;99.90;;;7.84;82.85;100521.73;1655600;76;24532;-81
2021/01/01 00:23:10;;;;;;;154.40;105.98;;;2.80;99.90;;;7.81;82.96;100525.57;1661572;76;24516;-79
2021/01/01 00:25:28;;;;;;;147.05;101.43;;;2.80;99.90;;;7.81;83.51;100525.57;1657181;76;24898;-81
2021/01/01 00:27:44;;;;;;;155.82;103.78;;;2.80;99.90;;;7.78;83.45;100528.12;1659039;76;24457;-79
2021/01/01 00:30:01;;;;;;;165.61;108.94;;;2.80;99.90;;;7.77;83.74;100528.97;1703921;74;24468;-80
2021/01/01 00:32:19;;;;;;;165.52;106.92;;;2.80;99.90;;;7.77;84.21;100530.27;1695943;74;24889;-79
2021/01/01 00:34:37;;;;;;;158.90;101.24;;;2.80;99.90;;;7.73;84.36;100531.49;1711308;74;24972;-79
2021/01/01 00:36:53;;;;;;;150.51;94.40;;;2.80;99.90;;;7.73;83.91;100526.31;1713833;74;24496;-80
2021/01/01 00:39:09;;;;;;;146.85;93.83;;;2.80;99.90;;;7.66;83.64;100524.92;1681675;76;24439;-79
2021/01/01 00:41:30;;;;;;;151.70;95.78;;;2.80;99.90;;;7.65;83.98;100529.63;1664003;76;24459;-80
2021/01/01 00:43:46;;;;;;;157.37;96.45;;;2.80;99.90;;;7.67;84.26;100528.36;1662102;77;24495;-81
2021/01/01 00:46:02;;;;;;;157.10;99.19;;;2.80;99.90;;;7.76;84.85;100525.06;1657520;77;24474;-77
2021/01/01 00:48:19;;;;;;;164.87;102.21;;;2.80;99.90;;;7.80;84.62;100525.13;1665023;76;24463;-79
2021/01/01 00:50:35;;;;;;;162.99;103.19;;;2.80;99.90;;;7.82;84.84;100519.97;1662585;76;24886;-80
2021/01/01 00:52:51;;;;;;;167.37;100.62;;;2.80;99.90;;;7.81;84.46;100522.98;1657222;76;25044;-77
2021/01/01 00:55:12;;;;;;;161.37;98.58;;;2.70;99.90;;;7.74;85.32;100532.37;1709488;74;24382;-78
2021/01/01 00:57:28;;;;;;;167.43;103.52;;;2.80;99.90;;;7.80;85.63;100525.13;1697780;74;24616;-80
2021/01/01 00:59:44;;;;;;;177.31;109.08;;;2.80;99.90;;;7.65;86.70;100537.41;1675208;76;24456;-79
2021/01/01 01:02:00;;;;;;;172.61;109.97;;;2.80;99.90;;;7.66;87.32;100527.52;1662456;76;24454;-77
2021/01/01 01:04:19;;;;;;;180.26;109.97;;;2.80;99.90;;;7.72;87.37;100533.20;1663088;76;24511;-78
2021/01/01 01:06:36;;;;;;;188.64;112.10;;;2.80;99.90;;;7.64;86.70;100529.20;1657809;76;24456;-78
2021/01/01 01:08:54;;;;;;;193.54;118.92;;;2.70;99.90;;;7.63;86.44;100532.61;1659731;76;25077;-80
2021/01/01 01:11:12;;;;;;;203.77;122.94;;;2.70;99.90;;;7.62;86.48;100535.17;1661012;77;24963;-78
2021/01/01 01:13:28;;;;;;;197.56;123.91;;;2.70;99.90;;;7.65;86.33;100530.92;1716314;74;24442;-78
2021/01/01 01:15:45;;;;;;;213.90;133.72;;;2.70;99.90;;;7.68;86.11;100532.72;1702411;75;24845;-79
2021/01/01 01:18:03;;;;;;;204.47;126.50;;;2.70;99.90;;;7.68;85.84;100532.72;1704785;75;24448;-78
2021/01/01 01:20:21;;;;;;;233.25;144.63;;;2.70;99.90;;;7.59;84.60;100536.01;1698604;74;24854;-78
2021/01/01 01:22:40;;;;;;;240.25;149.77;;;2.70;99.90;;;7.61;85.42;100538.63;1692210;75;24439;-78
2021/01/01 01:24:57;;;;;;;236.09;146.51;;;2.70;99.90;;;7.68;85.71;100535.31;1697557;75;24508;-78
2021/01/01 01:27:13;;;;;;;235.36;147.99;;;2.70;99.90;;;7.71;84.84;100540.54;1697804;75;24874;-77
2021/01/01 01:29:29;;;;;;;241.31;149.54;;;2.70;99.90;;;7.71;84.86;100540.54;1690595;75;24448;-78
2021/01/01 01:31:46;;;;;;;247.87;149.24;;;2.60;99.90;;;7.66;85.19;100544.36;1692644;75;25018;-77
2021/01/01 01:34:03;;;;;;;236.73;143.08;;;2.60;99.90;;;7.70;85.81;100546.14;1701328;74;24518;-77
2021/01/01 01:36:20;;;;;;;237.32;138.47;;;2.60;99.90;;;7.67;85.79;100552.56;1690301;75;24537;-79
2021/01/01 01:38:41;;;;;;;236.31;136.76;;;2.70;99.90;;;7.70;86.17;100546.55;1694870;75;24536;-77
2021/01/01 01:40:59;;;;;;;224.24;133.45;;;2.70;99.90;;;7.70;86.21;100546.14;1698466;75;24503;-77
2021/01/01 01:43:16;;;;;;;216.30;125.42;;;2.60;99.90;;;7.69;86.73;100549.58;1695852;75;24589;-79
2021/01/01 01:45:32;;;;;;;212.52;122.38;;;2.60;99.90;;;7.64;87.24;100551.22;1690940;73;25698;-78
2021/01/01 01:47:49;;;;;;;206.36;124.20;;;2.60;99.90;;;7.68;86.90;100549.56;1691732;75;24487;-76
2021/01/01 01:50:09;;;;;;;204.17;120.44;;;2.70;99.90;;;7.63;87.03;100554.63;1698170;75;25034;-78
2021/01/01 01:52:25;;;;;;;194.25;116.69;;;2.70;99.90;;;7.60;86.87;100556.33;1664690;76;24534;-78
2021/01/01 01:54:43;;;;;;;193.02;115.58;;;2.70;99.90;;;7.60;86.87;100558.92;1699779;75;24547;-77
2021/01/01 01:57:01;;;;;;;200.60;118.64;;;2.70;99.90;;;7.56;86.96;100551.92;1698362;75;24521;-78
2021/01/01 01:59:21;;;;;;;198.90;113.22;;;2.70;99.90;;;7.56;87.61;100558.39;1695267;75;24479;-78
2021/01/01 02:01:38;;;;;;;193.43;112.71;;;2.70;99.90;;;7.59;87.87;100559.33;1694736;75;25160;-78
2021/01/01 02:03:55;;;;;;;186.41;109.80;;;2.60;99.90;;;7.48;86.65;100560.86;1694830;75;24448;-77
2021/01/01 02:06:16;;;;;;;191.22;110.00;;;2.60;99.90;;;7.54;87.41;100563.55;1699705;75;24505;-78
2021/01/01 02:08:33;;;;;;;181.75;105.85;;;2.60;99.90;;;7.54;87.47;100563.55;1695442;75;24894;-77
2021/01/01 02:10:52;;;;;;;177.80;102.64;;;2.60;99.90;;;7.56;87.35;100561.87;1692518;75;24483;-77
2021/01/01 02:13:11;;;;;;;155.31;92.48;;;2.60;99.90;;;7.55;87.56;100561.84;1702956;75;24459;-77
2021/01/01 02:15:30;;;;;;;151.43;89.64;;;2.60;99.90;;;7.53;87.29;100566.11;1693710;74;24451;-77
2021/01/01 02:17:46;;;;;;;145.88;84.40;;;2.50;99.90;;;7.43;87.13;100566.37;1711841;74;24440;-77
2021/01/01 02:20:12;;;;;;;141.29;85.30;;;2.50;99.90;;;7.41;87.00;100571.94;1695641;74;24495;-77
2021/01/01 02:22:28;;;;;;;137.16;81.79;;;2.50;99.90;;;7.28;85.75;100569.98;1695695;74;24493;-77
2021/01/01 02:24:44;;;;;;;142.26;83.88;;;2.50;99.90;;;7.28;85.81;100575.16;1700185;74;24465;-77
2021/01/01 02:27:00;;;;;;;138.16;81.67;;;2.50;99.90;;;7.26;86.58;100565.19;1696819;74;24445;-77
2021/01/01 02:29:16;;;;;;;147.10;88.27;;;2.50;99.90;;;7.29;86.90;100573.42;1700542;74;24492;-77
2021/01/01 02:31:33;;;;;;;150.03;89.28;;;2.50;99.90;;;7.35;87.74;100568.39;1697674;74;24503;-77
2021/01/01 02:33:49;;;;;;;151.76;88.09;;;2.40;99.90;;;7.35;87.30;100574.41;1695509;74;24460;-77
2021/01/01 02:36:06;;;;;;;162.61;97.94;;;2.50;99.90;;;7.34;87.02;100576.98;1712061;74;24884;-76
2021/01/01 02:38:23;;;;;;;179.66;106.01;;;2.50;99.90;;;7.27;86.48;100575.98;1706637;74;24901;-76
2021/01/01 02:40:39;;;;;;;190.09;109.96;;;2.50;99.90;;;7.31;86.92;100575.63;1674575;76;24935;-77
2021/01/01 02:42:56;;;;;;;191.98;112.85;;;2.50;99.90;;;7.40;87.09;100577.97;1666710;77;24642;-76
2021/01/01 02:45:16;;;;;;;192.05;113.59;;;2.40;99.90;;;7.29;86.49;100587.66;1660206;76;25103;-77
2021/01/01 02:47:33;;;;;;;212.58;119.74;;;2.50;99.90;;;7.37;87.17;100580.92;1710812;74;24444;-77
2021/01/01 02:49:49;;;;;;;215.03;124.91;;;2.50;99.90;;;7.37;87.49;100580.50;1703811;74;24885;-76
2021/01/01 02:52:06;;;;;;;214.19;126.40;;;2.40;99.90;;;7.33;87.54;100578.69;1669919;76;24882;-77
2021/01/01 02:54:37;;;;;;;222.09;129.42;;;2.40;99.90;;;7.33;87.71;100584.31;1663647;76;24944;-77
2021/01/01 02:56:54;;;;;;;217.16;128.60;;;2.40;99.90;;;7.28;87.51;100582.93;1680981;76;24438;-80
2021/01/01 02:59:10;;;;;;;221.77;130.14;;;2.30;99.90;;;7.29;87.62;100579.89;1655641;76;24607;-78
2021/01/01 03:01:27;;;;;;;231.91;134.72;;;2.30;99.90;;;7.21;87.08;100580.17;1707698;74;24771;-78
2021/01/01 03:03:42;;;;;;;226.00;134.42;;;2.30;99.90;;;7.20;87.51;100579.31;1708391;74;24928;-79
2021/01/01 03:05:59;;;;;;;223.06;132.22;;;2.20;99.90;;;7.11;86.38;100576.52;1701507;74;24461;-78
2021/01/01 03:08:15;;;;;;;222.00;130.67;;;2.20;99.90;;;7.06;86.29;100580.77;1711359;74;24470;-77
2021/01/01 03:10:32;;;;;;;226.46;133.00;;;2.20;99.90;;;7.00;86.02;100583.64;1666547;76;24861;-77
2021/01/01 03:12:48;;;;;;;219.29;127.11;;;2.10;99.90;;;7.04;86.65;100578.55;1657951;76;24464;-78
2021/01/01 03:15:05;;;;;;;217.01;124.43;;;2.10;99.90;;;7.00;86.98;100583.64;1656392;77;24496;-78
2021/01/01 03:17:21;;;;;;;220.43;125.59;;;2.00;99.90;;;6.97;87.05;100584.88;1678707;75;24950;-77
2021/01/01 03:19:37;;;;;;;201.59;120.28;;;2.00;99.90;;;6.91;87.44;100581.72;1692200;75;24420;-78
2021/01/01 03:21:53;;;;;;;218.42;123.72;;;2.00;99.90;;;6.91;87.55;100590.78;1690316;75;24441;-78
2021/01/01 03:24:11;;;;;;;210.30;121.25;;;2.00;99.90;;;6.90;88.40;100586.88;1692986;75;24519;-78
2021/01/01 03:26:28;;;;;;;208.98;122.74;;;1.90;99.90;;;6.90;88.33;100592.05;1656109;77;24440;-77
2021/01/01 03:28:45;;;;;;;220.20;125.76;;;1.90;99.90;;;6.83;88.18;100583.27;1688096;74;24461;-78
2021/01/01 03:31:01;;;;;;;211.55;122.02;;;1.90;99.90;;;6.87;88.48;100583.81;1689576;75;24923;-77
2021/01/01 03:33:19;;;;;;;207.20;120.68;;;1.80;99.90;;;6.81;87.61;100587.53;1658121;77;24440;-78
2021/01/01 03:35:35;;;;;;;221.47;126.80;;;1.80;99.90;;;6.75;86.91;100595.17;1694544;74;24986;-77
2021/01/01 03:37:51;;;;;;;230.89;131.01;;;1.80;99.90;;;6.78;87.29;100590.51;1692196;75;24909;-77
2021/01/01 03:40:11;;;;;;;235.54;134.60;;;1.70;99.90;;;6.81;87.56;100586.69;1703728;74;24983;-77
2021/01/01 03:42:28;;;;;;;247.00;138.90;;;1.70;99.90;;;6.83;88.12;100587.16;1698037;75;24977;-77
2021/01/01 03:44:44;;;;;;;248.84;138.15;;;1.70;99.90;;;6.87;88.06;100587.70;1697174;75;24939;-77
2021/01/01 03:47:00;;;;;;;259.81;141.37;;;1.70;99.90;;;6.90;88.14;100586.46;1655760;77;24444;-77
2021/01/01 03:49:16;;;;;;;252.84;141.23;;;1.80;99.90;;;6.95;88.31;100588.73;1649689;77;24489;-77
2021/01/01 03:51:32;;;;;;;258.12;143.67;;;1.80;99.90;;;6.97;88.13;100588.31;1685912;75;24978;-77
2021/01/01 03:53:49;;;;;;;254.96;135.54;;;1.80;99.90;;;7.07;88.25;100587.67;1647524;77;24964;-78
2021/01/01 03:56:08;;;;;;;249.04;135.92;;;1.80;99.90;;;6.99;87.40;100587.05;1702070;75;24968;-77
2021/01/01 03:58:24;;;;;;;253.29;138.25;;;1.80;99.90;;;7.00;87.51;100590.97;1705769;75;24432;-77
2021/01/01 04:00:40;;;;;;;255.60;138.19;;;1.90;99.90;;;6.97;88.00;100584.88;1689270;75;24581;-78
2021/01/01 04:02:56;;;;;;;235.42;130.02;;;1.90;99.90;;;7.02;87.95;100588.00;1680699;75;24886;-77
2021/01/01 04:05:14;;;;;;;215.14;121.93;;;1.90;99.90;;;7.02;87.56;100590.58;1681697;75;24430;-78
2021/01/01 04:07:33;;;;;;;206.37;116.54;;;1.90;99.90;;;6.88;86.59;100588.55;1683293;75;24434;-78
2021/01/01 04:09:49;;;;;;;196.88;107.70;;;1.90;99.90;;;6.83;86.51;100587.16;1693163;75;24498;-78
2021/01/01 04:12:07;;;;;;;189.23;113.60;;;1.90;99.90;;;6.80;86.03;100593.56;1690097;75;24588;-78
2021/01/01 04:14:28;;;;;;;209.77;118.38;;;1.90;99.90;;;6.81;86.12;100584.95;1679165;75;24390;-77
2021/01/01 04:16:48;;;;;;;220.54;120.82;;;1.90;99.90;;;6.97;87.33;100587.47;1663904;76;24945;-79
2021/01/01 04:19:04;;;;;;;212.56;117.51;;;1.90;99.90;;;7.10;87.79;100594.61;1717337;75;24471;-78
2021/01/01 04:21:23;;;;;;;221.66;122.55;;;2.00;99.90;;;7.12;86.97;100588.64;1689602;75;24878;-78
2021/01/01 04:23:39;;;;;;;225.40;123.08;;;2.00;99.90;;;7.19;87.29;100593.08;1706369;75;24447;-78
2021/01/01 04:25:56;;;;;;;225.31;128.42;;;2.00;99.90;;;7.15;86.79;100592.59;1706639;74;24461;-78
2021/01/01 04:28:15;;;;;;;221.85;122.09;;;2.10;99.90;;;7.26;87.63;100594.08;1699954;75;24875;-78
2021/01/01 04:30:31;;;;;;;208.58;119.06;;;2.10;99.90;;;7.24;87.36;100595.80;1690456;74;24493;-78
2021/01/01 04:32:47;;;;;;;203.32;118.42;;;2.10;99.90;;;7.14;87.19;100598.62;1697797;75;24458;-77
2021/01/01 04:35:03;;;;;;;191.30;105.65;;;2.10;99.90;;;7.18;87.53;100600.41;1699857;74;24516;-78
2021/01/01 04:37:19;;;;;;;203.76;118.22;;;2.20;99.90;;;7.01;87.21;100596.61;1698497;75;25032;-77
2021/01/01 04:39:35;;;;;;;204.02;112.80;;;2.20;99.90;;;7.23;88.02;100605.27;1706930;75;24447;-77
2021/01/01 04:41:56;;;;;;;198.61;109.90;;;2.20;99.90;;;7.18;87.73;100596.53;1705460;73;24516;-77
2021/01/01 04:44:12;;;;;;;189.69;109.02;;;2.20;99.90;;;7.26;87.33;100599.27;1695048;75;24429;-77
2021/01/01 04:46:30;;;;;;;189.50;109.77;;;2.20;99.90;;;7.32;87.67;100593.78;1689981;75;24478;-77
2021/01/01 04:48:47;;;;;;;183.34;103.23;;;2.30;99.90;;;7.41;87.55;100595.69;1705963;75;24636;-79
2021/01/01 04:51:08;;;;;;;198.59;106.93;;;2.20;99.90;;;7.23;86.92;100600.09;1702923;75;24890;-79
2021/01/01 04:53:26;;;;;;;187.59;107.72;;;2.30;99.90;;;7.24;87.65;100596.64;1708424;75;24897;-79
2021/01/01 04:55:47;;;;;;;184.84;107.51;;;2.30;99.90;;;7.25;87.58;100593.64;1662436;76;24460;-79
2021/01/01 04:58:03;;;;;;;191.12;112.18;;;2.30;99.90;;;7.18;87.01;100595.23;1696455;75;24444;-76
2021/01/01 05:00:22;;;;;;;203.35;118.86;;;2.20;99.90;;;7.25;87.82;100596.23;1702364;75;24430;-77
2021/01/01 05:02:40;;;;;;;201.56;109.56;;;2.20;99.90;;;7.24;87.99;100600.53;1690772;75;24457;-76
2021/01/01 05:04:57;;;;;;;204.60;119.26;;;2.20;99.90;;;7.05;87.59;100597.11;1707228;74;24456;-76
2021/01/01 05:07:21;;;;;;;200.27;117.24;;;2.20;99.90;;;7.14;87.76;100595.15;1699062;75;24567;-77
2021/01/01 05:09:39;;;;;;;213.32;125.83;;;2.10;99.90;;;7.13;87.27;100596.85;1715172;75;24531;-78
2021/01/01 05:12:11;;;;;;;214.58;122.04;;;2.10;99.90;;;7.17;88.02;100593.50;1693907;74;24507;-77
2021/01/01 05:14:30;;;;;;;232.23;134.39;;;2.10;99.90;;;7.05;87.49;100598.41;1658564;76;24961;-77
2021/01/01 05:16:53;;;;;;;225.96;130.88;;;2.00;99.90;;;7.15;87.83;100603.35;1693228;75;24960;-76
2021/01/01 05:19:14;;;;;;;267.06;148.77;;;2.00;99.90;;;7.13;87.67;100602.03;1686555;75;24855;-78
2021/01/01 05:21:31;;;;;;;260.10;149.46;;;2.00;99.90;;;7.06;88.29;100607.95;1683043;75;24493;-77
2021/01/01 05:23:49;;;;;;;261.70;147.20;;;2.00;99.90;;;7.15;88.62;100604.23;1687694;75;24910;-76
2021/01/01 05:26:14;;;;;;;268.57;153.80;;;2.00;99.90;;;7.10;88.28;100614.03;1687388;75;24956;-76
2021/01/01 05:28:35;;;;;;;289.00;163.92;;;2.00;99.90;;;7.16;88.62;100615.48;1681177;75;24449;-77
2021/01/01 05:30:52;;;;;;;296.61;164.70;;;2.00;99.90;;;7.10;88.98;100611.03;1688202;75;24433;-77
2021/01/01 05:33:11;;;;;;;289.49;159.27;;;2.00;99.90;;;7.14;89.06;100611.98;1694277;75;24502;-78
2021/01/01 05:35:33;;;;;;;288.04;153.70;;;2.00;99.90;;;6.99;88.33;100609.94;1681925;75;24524;-77
2021/01/01 05:37:49;;;;;;;295.52;166.53;;;2.00;99.90;;;6.80;87.86;100612.97;1702151;75;24957;-77
2021/01/01 05:40:13;;;;;;;291.41;169.27;;;2.00;99.90;;;6.87;88.21;100618.75;1694252;74;24940;-77
2021/01/01 05:42:29;;;;;;;278.69;146.08;;;1.90;99.90;;;6.92;88.28;100615.84;1686995;75;24898;-78
2021/01/01 05:44:45;;;;;;;290.12;163.14;;;1.90;99.90;;;6.72;87.66;100620.14;1689339;75;24494;-77
2021/01/01 05:47:07;;;;;;;265.76;143.53;;;1.90;99.90;;;6.82;88.02;100615.59;1686423;75;24875;-78
2021/01/01 05:49:24;;;;;;;287.42;166.76;;;1.80;99.90;;;6.65;87.52;100616.53;1693297;75;24438;-77
2021/01/01 05:51:40;;;;;;;280.78;161.46;;;1.80;99.90;;;6.83;88.30;100619.51;1683756;75;24452;-77
2021/01/01 05:54:13;;;;;;;282.60;159.07;;;1.80;99.90;;;6.73;87.90;100621.46;1679424;75;24473;-77
2021/01/01 05:56:30;;;;;;;288.01;153.87;;;1.80;99.90;;;6.71;87.49;100623.54;1685945;75;24421;-77
2021/01/01 05:58:47;;;;;;;290.38;164.46;;;1.80;99.90;;;6.74;87.30;100623.60;1678822;75;24510;-77
2021/01/01 06:01:04;;;;;;;302.47;165.90;;;1.70;99.90;;;6.77;87.49;100627.14;1680298;75;24934;-77
2021/01/01 06:03:25;;;;;;;277.10;148.02;;;1.70;99.90;;;6.82;88.11;100624.65;1691241;75;24417;-76
2021/01/01 06:05:43;;;;;;;274.63;152.09;;;1.70;99.90;;;6.69;87.46;100633.86;1678975;75;24890;-77
2021/01/01 06:08:03;;;;;;;271.18;153.85;;;1.70;99.90;;;6.75;87.48;100630.55;1692533;75;24456;-76
2021/01/01 06:10:21;;;;;;;252.50;147.68;;;1.70;99.90;;;6.77;87.49;100634.91;1693672;75;24882;-76
2021/01/01 06:12:40;;;;;;;262.11;147.16;;;1.70;99.90;;;6.62;87.50;100636.28;1684949;75;24964;-77
2021/01/01 06:15:01;;;;;;;249.44;145.67;;;1.70;99.90;;;6.58;87.55;100634.03;1678602;75;24496;-78
2021/01/01 06:17:25;;;;;;;231.65;129.21;;;1.70;99.90;;;6.58;88.16;100634.44;1688606;75;24485;-77
2021/01/01 06:19:51;;;;;;;224.97;134.61;;;1.70;99.90;;;6.49;87.95;100639.00;1703343;75;24429;-77
2021/01/01 06:22:11;;;;;;;234.24;128.94;;;1.70;99.90;;;6.59;88.35;100643.53;1688441;75;24548;-78
2021/01/01 06:24:28;;;;;;;221.00;126.05;;;1.70;99.90;;;6.54;88.05;100635.23;1678791;75;24490;-77
2021/01/01 06:26:48;;;;;;;214.31;116.60;;;1.70;99.90;;;6.53;88.14;100642.09;1692715;75;24409;-78
2021/01/01 06:29:04;;;;;;;197.49;109.26;;;1.70;99.90;;;6.58;88.28;100646.97;1694919;75;24504;-78
2021/01/01 06:31:21;;;;;;;172.20;94.43;;;1.70;99.90;;;6.41;88.45;100646.11;1687709;75;24455;-77
2021/01/01 06:33:40;;;;;;;185.72;104.52;;;1.70;99.90;;;6.49;88.50;100642.00;1681804;75;24464;-77
2021/01/01 06:35:57;;;;;;;156.90;83.65;;;1.70;99.90;;;6.42;88.72;100648.73;1689250;74;24956;-77
2021/01/01 06:38:15;;;;;;;194.45;110.22;;;1.70;99.90;;;6.48;88.69;100652.75;1685345;75;24520;-77
2021/01/01 06:40:39;;;;;;;199.55;113.17;;;1.70;99.90;;;6.57;89.09;100650.41;1685996;75;24445;-77
2021/01/01 06:43:00;;;;;;;200.34;110.23;;;1.70;99.90;;;6.69;88.96;100651.08;1682328;75;24437;-77
2021/01/01 06:45:36;;;;;;;181.79;95.51;;;1.70;99.90;;;6.74;88.52;100657.24;1689750;75;24927;-77
2021/01/01 06:47:53;;;;;;;180.89;103.39;;;1.70;99.90;;;6.60;88.47;100666.41;1695905;75;24490;-77
2021/01/01 06:50:31;;;;;;;177.46;100.95;;;1.70;99.90;;;6.75;88.27;100666.33;1694088;75;24446;-78
2021/01/01 06:52:51;;;;;;;163.81;86.89;;;1.70;99.90;;;6.81;88.30;100665.17;1676782;75;24463;-77
2021/01/01 06:55:12;;;;;;;175.84;97.01;;;1.70;99.90;;;6.69;87.99;100667.90;1683138;74;24476;-78
2021/01/01 06:57:30;;;;;;;174.47;95.08;;;1.70;99.90;;;6.86;88.38;100666.16;1685112;75;24661;-78
2021/01/01 06:59:47;;;;;;;145.24;75.53;;;1.70;99.90;;;6.87;88.00;100673.50;1684434;75;24915;-78
2021/01/01 07:02:22;;;;;;;160.20;84.86;;;1.70;99.90;;;6.63;87.69;100667.35;1694095;75;24866;-78
2021/01/01 07:04:53;;;;;;;145.67;81.61;;;1.70;99.90;;;6.65;88.47;100673.86;1684599;75;24519;-77
2021/01/01 07:07:09;;;;;;;154.31;88.96;;;1.70;99.90;;;6.71;88.38;100678.76;1693892;75;24495;-76
2021/01/01 07:09:37;;;;;;;142.75;77.77;;;1.80;99.90;;;6.81;88.31;100684.58;1682290;75;25047;-79
2021/01/01 07:11:53;;;;;;;150.57;80.81;;;1.80;99.90;;;6.70;87.99;100685.19;1679717;75;24438;-78
2021/01/01 07:14:20;;;;;;;151.47;87.34;;;1.70;99.90;;;6.73;88.12;100685.26;1694153;75;24895;-78
2021/01/01 07:16:38;;;;;;;144.75;78.50;;;1.80;99.90;;;6.81;88.52;100683.28;1688545;75;24441;-78
2021/01/01 07:18:55;;;;;;;148.32;84.54;;;1.80;99.90;;;6.81;88.41;100688.90;1695627;74;24448;-78
2021/01/01 07:21:15;;;;;;;146.07;82.20;;;1.80;99.90;;;6.88;88.17;100687.77;1699597;74;24452;-79
2021/01/01 07:23:33;;;;;;;145.08;78.50;;;1.70;99.90;;;6.81;88.08;100687.16;1713454;74;24523;-78
2021/01/01 07:25:49;;;;;;;145.92;81.17;;;1.80;99.90;;;6.85;87.82;100690.70;1711699;74;24515;-78
2021/01/01 07:28:08;;;;;;;160.74;89.24;;;1.80;99.90;;;6.77;87.80;100697.41;1671532;76;24784;-78
2021/01/01 07:30:28;;;;;;;155.19;84.34;;;1.70;99.90;;;6.81;88.36;100695.37;1659850;76;24531;-78
2021/01/01 07:32:47;;;;;;;147.91;83.90;;;1.80;99.90;;;6.82;88.12;100699.28;1642277;77;24452;-79
2021/01/01 07:35:08;;;;;;;134.82;74.37;;;1.80;99.90;;;6.85;88.28;100698.47;1645520;77;24948;-77
2021/01/01 07:37:28;;;;;;;130.56;74.30;;;1.80;99.90;;;6.80;88.11;100705.24;1660623;76;24604;-78
2021/01/01 07:39:47;;;;;;;138.50;74.84;;;1.80;99.90;;;6.87;88.38;100698.98;1664435;76;24531;-78
2021/01/01 07:42:09;;;;;;;148.47;83.07;;;1.90;99.90;;;6.91;88.28;100707.25;1656206;76;24522;-77
2021/01/01 07:44:25;;;;;;;141.80;74.48;;;1.90;99.90;;;7.08;88.31;100705.91;1661888;76;24888;-78
2021/01/01 07:46:41;;;;;;;137.54;74.56;;;1.90;99.90;;;7.09;88.05;100701.20;1715467;74;24870;-77
2021/01/01 07:49:01;;;;;;;140.52;76.41;;;2.00;99.90;;;7.11;88.13;100704.67;1702589;74;24639;-79
2021/01/01 07:51:19;;;;;;;126.43;70.76;;;2.00;99.90;;;7.33;87.94;100703.00;1683061;76;24427;-78
2021/01/01 07:53:41;;;;;;;133.12;74.31;;;2.10;99.90;;;7.15;88.80;100704.33;1662179;76;24887;-78
2021/01/01 07:56:03;;;;;;;131.39;74.51;;;2.20;99.90;;;7.37;88.62;100710.01;1709740;74;24992;-78
2021/01/01 07:58:20;;;;;;;126.87;66.36;;;2.20;99.90;;;7.48;88.48;100711.11;1703431;74;24570;-78
2021/01/01 08:00:40;;;;;;;125.96;71.17;;;2.30;99.90;;;7.33;88.13;100704.30;1704365;74;24508;-78
2021/01/01 08:02:57;;;;;;;123.00;70.12;;;2.30;99.90;;;7.43;88.68;100711.42;1686605;76;24439;-79
2021/01/01 08:05:17;;;;;;;125.44;70.30;;;2.40;99.90;;;7.34;88.71;100712.95;1660468;76;24883;-79
2021/01/01 08:07:33;;;;;;;115.23;64.42;;;2.40;99.90;;;7.29;89.06;100711.97;1656693;76;24508;-80
2021/01/01 08:09:49;;;;;;;103.12;56.62;;;2.40;99.90;;;7.17;89.25;100709.13;1662171;76;24489;-77
2021/01/01 08:12:11;;;;;;;112.05;61.06;;;2.40;99.90;;;7.23;89.64;100715.73;1665149;76;24483;-78
2021/01/01 08:14:28;;;;;;;112.49;62.48;;;2.40;99.90;;;7.23;89.57;100712.73;1662109;77;24544;-78
2021/01/01 08:16:44;;;;;;;115.16;65.42;;;2.40;99.90;;;7.48;89.60;100716.28;1704927;74;24633;-77
2021/01/01 08:19:01;;;;;;;111.09;64.57;;;2.40;99.90;;;7.64;89.53;100717.47;1704392;74;24486;-78
2021/01/01 08:21:20;;;;;;;108.06;58.40;;;2.50;99.90;;;7.58;88.96;100720.83;1669505;76;24595;-79
2021/01/01 08:23:48;;;;;;;94.73;53.27;;;2.50;99.90;;;7.54;88.87;100718.11;1662252;77;24588;-79
2021/01/01 08:26:09;;;;;;;67.15;35.93;;;2.60;99.90;;;7.57;88.99;100731.16;1663898;76;24495;-78
2021/01/01 08:28:32;;;;;;;99.05;57.16;;;2.60;99.90;;;7.34;89.86;100715.13;1660138;76;24602;-79
2021/01/01 08:30:54;;;;;;;92.08;54.00;;;2.60;99.90;;;7.58;90.11;100726.01;1659899;76;24892;-78
2021/01/01 08:33:13;;;;;;;70.83;42.24;;;2.70;99.90;;;7.73;89.83;100727.16;1660779;76;24483;-75
2021/01/01 08:35:30;;;;;;;91.15;53.03;;;2.70;99.90;;;7.54;89.86;100733.66;1663598;76;24902;-76
2021/01/01 08:37:45;;;;;;;84.56;48.32;;;2.70;99.90;;;7.68;90.03;100730.52;1656624;76;24966;-76
2021/01/01 08:40:08;;;;;;;93.80;54.18;;;2.80;99.90;;;7.67;90.10;100731.78;1667198;76;24603;-77
2021/01/01 08:42:26;;;;;;;95.51;56.06;;;2.80;99.90;;;7.87;89.77;100735.66;1657929;77;24468;-77
2021/01/01 08:44:45;;;;;;;93.33;56.07;;;2.80;99.90;;;7.94;89.35;100741.39;1662758;77;24450;-77
2021/01/01 08:47:02;;;;;;;94.12;55.64;;;2.90;99.90;;;8.04;89.72;100742.45;1662625;76;24887;-75
2021/01/01 08:49:22;;;;;;;63.62;38.26;;;3.00;99.90;;;8.05;89.86;100743.77;1713981;74;24476;-78
2021/01/01 08:51:38;;;;;;;84.72;51.27;;;3.00;99.90;;;7.80;90.37;100745.44;1706743;74;24453;-77
2021/01/01 08:53:54;;;;;;;62.08;36.02;;;3.10;99.90;;;8.00;91.09;100747.14;1668571;76;24504;-76
2021/01/01 08:56:13;;;;;;;81.00;51.32;;;3.20;99.90;;;7.81;91.31;100751.06;1661157;76;24588;-78
2021/01/01 08:58:36;;;;;;;81.95;49.74;;;3.20;99.90;;;8.22;91.07;100747.98;1701582;74;24898;-76
2021/01/01 09:00:52;;;;;;;83.78;52.88;;;3.30;99.90;;;8.24;91.20;100751.50;1701926;74;24898;-77
2021/01/01 09:03:10;;;;;;;80.36;48.90;;;3.40;99.90;;;8.20;90.25;100747.08;1699795;74;24918;-77
2021/01/01 09:05:28;;;;;;;75.37;42.62;;;3.40;99.90;;;8.35;90.43;100747.38;1669818;76;24668;-77
2021/01/01 09:07:44;;;;;;;75.28;48.00;;;3.50;99.90;;;8.44;90.17;100750.16;1667245;76;24455;-77
2021/01/01 09:10:21;;;;;;;70.18;44.80;;;3.60;99.90;;;8.34;91.21;100749.53;1702484;74;24484;-77
2021/01/01 09:12:37;;;;;;;69.86;43.30;;;3.70;99.90;;;8.40;91.46;100749.22;1717293;74;24565;-76
2021/01/01 09:14:56;;;;;;;63.78;37.00;;;3.70;99.90;;;8.37;91.39;100762.14;1714292;74;24451;-77
2021/01/01 09:17:13;;;;;;;65.29;40.57;;;3.80;99.90;;;8.30;91.23;100765.90;1671274;76;24495;-77
2021/01/01 09:19:29;;;;;;;65.71;39.83;;;3.80;99.90;;;8.48;92.05;100759.72;1678317;76;24464;-77
2021/01/01 09:21:45;;;;;;;64.95;42.06;;;3.90;99.90;;;8.53;91.59;100764.58;1656770;76;24449;-77
2021/01/01 09:24:01;;;;;;;50.04;29.11;;;4.00;99.90;;;8.69;91.55;100760.09;1652800;77;24473;-77
2021/01/01 09:26:23;;;;;;;63.86;42.42;;;4.00;99.90;;;8.50;92.01;100764.52;1688298;75;24442;-78